PWSweather.com
Personal Weather Stations
Station Observations
PENICUIKWS
PenicuikGB

PenicuikGB

Lat: 55.830932, Lon: -3.224533000000065

Elevation: 166

Station Type: Fine Offset

http://weather.penicuik.org

High Low Average
Temperature 50.0°F10.0°C 27.9°F-2.3°C 40.5°F4.7°C
Dew Point 38.6°F3.7°C 23.7°F-4.6°C 33.3°F0.7°C
Winds 13.1 mph 21.1 kmh Calm Calm 5.0 mph SSE8.0 kmh SSE
Wind Gusts 17.4 mph28.0 kmh -- 8.0 mph12.9 kmh
Humidity 90% 62% 76%
Pressure 29.73 in1006.8 mb 29.36 in994.2 mb -
Precipitation 0.01 in0.3 mm - -
Hour Temp Dew Point Humidity Winds Wind Gusts Pressure Precip Precip Rate Daily Precip Total
12:00 AM 29.7°F-1.3°C 26.0°F-3.3°C 86% Calm Calm -- 29.73 in1006.8 mb 0.00 in0.0 mm 0.00 in0.0 mm 0.00 in0.0 mm
12:15 AM 29.7°F-1.3°C 26.0°F-3.3°C 86% 0.4 mph SSE0.6 kmh SSE 2.2 mph3.5 kmh 29.73 in1006.8 mb 0.00 in0.0 mm 0.00 in0.0 mm 0.00 in0.0 mm
12:30 AM 30.2°F-1.0°C 26.5°F-3.1°C 86% 1.0 mph S1.6 kmh S 2.2 mph3.5 kmh 29.72 in1006.4 mb 0.00 in0.0 mm 0.00 in0.0 mm 0.00 in0.0 mm
12:45 AM 29.5°F-1.4°C 26.1°F-3.3°C 87% Calm Calm -- 29.72 in1006.4 mb 0.00 in0.0 mm 0.00 in0.0 mm 0.00 in0.0 mm
01:00 AM 29.5°F-1.4°C 26.1°F-3.3°C 87% 0.2 mph SW0.3 kmh SW 0.7 mph1.1 kmh 29.71 in1006.1 mb 0.00 in0.0 mm 0.00 in0.0 mm 0.00 in0.0 mm
01:15 AM 28.9°F-1.7°C 25.6°F-3.6°C 87% 0.4 mph SSW0.6 kmh SSW 1.6 mph2.6 kmh 29.71 in1006.1 mb 0.00 in0.0 mm 0.00 in0.0 mm 0.00 in0.0 mm
01:30 AM 29.5°F-1.4°C 26.1°F-3.3°C 87% 1.4 mph ENE2.3 kmh ENE 2.2 mph3.5 kmh 29.71 in1006.1 mb 0.00 in0.0 mm 0.00 in0.0 mm 0.00 in0.0 mm
01:45 AM 28.9°F-1.7°C 25.6°F-3.6°C 87% 0.2 mph S0.3 kmh S 0.7 mph1.1 kmh 29.70 in1005.8 mb 0.00 in0.0 mm 0.00 in0.0 mm 0.00 in0.0 mm
02:00 AM 28.9°F-1.7°C 25.6°F-3.6°C 87% 0.1 mph S0.2 kmh S 0.7 mph1.1 kmh 29.69 in1005.4 mb 0.00 in0.0 mm 0.00 in0.0 mm 0.00 in0.0 mm
02:30 AM 28.9°F-1.7°C 25.9°F-3.4°C 88% 0.2 mph SE0.3 kmh SE 1.6 mph2.6 kmh 29.69 in1005.4 mb 0.00 in0.0 mm 0.00 in0.0 mm 0.00 in0.0 mm
02:45 AM 28.8°F-1.8°C 25.7°F-3.5°C 88% 0.4 mph S0.6 kmh S 1.6 mph2.6 kmh 29.68 in1005.1 mb 0.00 in0.0 mm 0.00 in0.0 mm 0.00 in0.0 mm
03:00 AM 28.6°F-1.9°C 25.5°F-3.6°C 88% 0.2 mph N0.3 kmh N 1.6 mph2.6 kmh 29.67 in1004.7 mb 0.00 in0.0 mm 0.00 in0.0 mm 0.00 in0.0 mm
03:15 AM 28.2°F-2.1°C 24.0°F-4.4°C 84% 0.2 mph N0.3 kmh N 0.7 mph1.1 kmh 29.67 in1004.7 mb 0.00 in0.0 mm 0.00 in0.0 mm 0.00 in0.0 mm
03:30 AM 28.4°F-2.0°C 25.3°F-3.7°C 88% 0.2 mph S0.3 kmh S 0.7 mph1.1 kmh 29.67 in1004.7 mb 0.00 in0.0 mm 0.00 in0.0 mm 0.00 in0.0 mm
03:45 AM 27.9°F-2.3°C 23.7°F-4.6°C 84% Calm Calm -- 29.66 in1004.4 mb 0.00 in0.0 mm 0.00 in0.0 mm 0.00 in0.0 mm
04:00 AM 27.9°F-2.3°C 23.7°F-4.6°C 84% 0.8 mph SSW1.3 kmh SSW 2.2 mph3.5 kmh 29.65 in1004.1 mb 0.00 in0.0 mm 0.00 in0.0 mm 0.00 in0.0 mm
04:15 AM 28.4°F-2.0°C 25.3°F-3.7°C 88% 1.2 mph SW1.9 kmh SW 2.2 mph3.5 kmh 29.65 in1004.1 mb 0.00 in0.0 mm 0.00 in0.0 mm 0.00 in0.0 mm
04:45 AM 28.8°F-1.8°C 25.9°F-3.4°C 89% 0.3 mph S0.5 kmh S 1.6 mph2.6 kmh 29.64 in1003.7 mb 0.00 in0.0 mm 0.00 in0.0 mm 0.00 in0.0 mm
05:15 AM 29.5°F-1.4°C 26.7°F-2.9°C 89% 0.5 mph S0.8 kmh S 1.6 mph2.6 kmh 29.64 in1003.7 mb 0.00 in0.0 mm 0.00 in0.0 mm 0.00 in0.0 mm
05:30 AM 30.0°F-1.1°C 27.5°F-2.5°C 90% 0.2 mph N0.3 kmh N 0.7 mph1.1 kmh 29.63 in1003.4 mb 0.00 in0.0 mm 0.00 in0.0 mm 0.00 in0.0 mm
05:45 AM 30.4°F-0.9°C 27.5°F-2.5°C 89% 0.5 mph N0.8 kmh N 0.7 mph1.1 kmh 29.63 in1003.4 mb 0.00 in0.0 mm 0.00 in0.0 mm 0.00 in0.0 mm
06:00 AM 30.6°F-0.8°C 27.7°F-2.4°C 89% Calm Calm 0.7 mph1.1 kmh 29.63 in1003.4 mb 0.00 in0.0 mm 0.00 in0.0 mm 0.00 in0.0 mm
06:15 AM 30.9°F-0.6°C 28.1°F-2.2°C 89% 0.6 mph SW1.0 kmh SW 1.6 mph2.6 kmh 29.62 in1003.0 mb 0.00 in0.0 mm 0.00 in0.0 mm 0.00 in0.0 mm
06:30 AM 31.3°F-0.4°C 28.7°F-1.8°C 90% 0.4 mph N0.6 kmh N 1.6 mph2.6 kmh 29.62 in1003.0 mb 0.00 in0.0 mm 0.00 in0.0 mm 0.00 in0.0 mm
07:15 AM 32.5°F0.3°C 29.7°F-1.3°C 89% 0.6 mph SW1.0 kmh SW 3.1 mph5.0 kmh 29.61 in1002.7 mb 0.00 in0.0 mm 0.00 in0.0 mm 0.00 in0.0 mm
07:30 AM 34.0°F1.1°C 31.1°F-0.5°C 89% 1.8 mph SW2.9 kmh SW 3.8 mph6.1 kmh 29.60 in1002.4 mb 0.00 in0.0 mm 0.00 in0.0 mm 0.00 in0.0 mm
07:45 AM 34.2°F1.2°C 31.3°F-0.4°C 89% 0.9 mph SW1.4 kmh SW 3.1 mph5.0 kmh 29.60 in1002.4 mb 0.00 in0.0 mm 0.00 in0.0 mm 0.00 in0.0 mm
08:15 AM 37.2°F2.9°C 33.1°F0.6°C 85% 3.2 mph SSW5.1 kmh SSW 5.4 mph8.7 kmh 29.59 in1002.0 mb 0.00 in0.0 mm 0.00 in0.0 mm 0.00 in0.0 mm
08:30 AM 38.5°F3.6°C 34.4°F1.3°C 85% 3.0 mph SSW4.8 kmh SSW 4.5 mph7.2 kmh 29.57 in1001.4 mb 0.00 in0.0 mm 0.00 in0.0 mm 0.00 in0.0 mm
08:45 AM 41.5°F5.3°C 32.9°F0.5°C 71% 4.2 mph SE6.8 kmh SE 6.0 mph9.7 kmh 29.58 in1001.7 mb 0.00 in0.0 mm 0.00 in0.0 mm 0.00 in0.0 mm
09:00 AM 40.6°F4.8°C 32.7°F0.4°C 73% 5.1 mph SSE8.2 kmh SSE 6.9 mph11.1 kmh 29.57 in1001.4 mb 0.00 in0.0 mm 0.00 in0.0 mm 0.00 in0.0 mm
09:15 AM 40.5°F4.7°C 32.5°F0.3°C 73% 3.5 mph NW5.6 kmh NW 5.4 mph8.7 kmh 29.57 in1001.4 mb 0.00 in0.0 mm 0.00 in0.0 mm 0.00 in0.0 mm
09:30 AM 41.0°F5.0°C 32.7°F0.4°C 72% 4.2 mph SSE6.8 kmh SSE 6.0 mph9.7 kmh 29.56 in1001.0 mb 0.00 in0.0 mm 0.00 in0.0 mm 0.00 in0.0 mm
09:45 AM 41.7°F5.4°C 33.4°F0.8°C 72% 3.3 mph S5.3 kmh S 5.4 mph8.7 kmh 29.56 in1001.0 mb 0.00 in0.0 mm 0.00 in0.0 mm 0.00 in0.0 mm
10:00 AM 43.3°F6.3°C 34.6°F1.4°C 71% 3.5 mph S5.6 kmh S 9.2 mph14.8 kmh 29.55 in1000.7 mb 0.00 in0.0 mm 0.00 in0.0 mm 0.00 in0.0 mm
10:15 AM 45.0°F7.2°C 34.7°F1.5°C 67% 5.9 mph S9.5 kmh S 9.2 mph14.8 kmh 29.54 in1000.3 mb 0.00 in0.0 mm 0.00 in0.0 mm 0.00 in0.0 mm
10:30 AM 45.3°F7.4°C 34.6°F1.4°C 66% 7.6 mph SSE12.2 kmh SSE 10.7 mph17.2 kmh 29.54 in1000.3 mb 0.00 in0.0 mm 0.00 in0.0 mm 0.00 in0.0 mm
10:45 AM 45.5°F7.5°C 35.2°F1.8°C 67% 5.7 mph S9.2 kmh S 10.7 mph17.2 kmh 29.54 in1000.3 mb 0.00 in0.0 mm 0.00 in0.0 mm 0.00 in0.0 mm
11:15 AM 45.1°F7.3°C 34.1°F1.2°C 65% 9.7 mph SSE15.6 kmh SSE 11.4 mph18.3 kmh 29.52 in999.7 mb 0.00 in0.0 mm 0.00 in0.0 mm 0.00 in0.0 mm
11:30 AM 45.3°F7.4°C 34.3°F1.3°C 65% 7.8 mph S12.6 kmh S 9.8 mph15.8 kmh 29.52 in999.7 mb 0.00 in0.0 mm 0.00 in0.0 mm 0.00 in0.0 mm
12:00 PM 47.1°F8.4°C 35.6°F2.0°C 64% 2.7 mph S4.3 kmh S 4.5 mph7.2 kmh 29.50 in999.0 mb 0.00 in0.0 mm 0.00 in0.0 mm 0.00 in0.0 mm
12:30 PM 46.8°F8.2°C 35.2°F1.8°C 64% 7.5 mph S12.1 kmh S 10.7 mph17.2 kmh 29.50 in999.0 mb 0.00 in0.0 mm 0.00 in0.0 mm 0.00 in0.0 mm
12:45 PM 46.9°F8.3°C 35.8°F2.1°C 65% 7.4 mph SE11.9 kmh SE 9.8 mph15.8 kmh 29.50 in999.0 mb 0.00 in0.0 mm 0.00 in0.0 mm 0.00 in0.0 mm
01:00 PM 46.8°F8.2°C 35.6°F2.0°C 65% 9.9 mph SE15.9 kmh SE 14.5 mph23.3 kmh 29.48 in998.3 mb 0.00 in0.0 mm 0.00 in0.0 mm 0.00 in0.0 mm
01:15 PM 46.9°F8.3°C 36.2°F2.3°C 66% 10.5 mph S16.9 kmh S 13.6 mph21.9 kmh 29.48 in998.3 mb 0.00 in0.0 mm 0.00 in0.0 mm 0.00 in0.0 mm
01:30 PM 47.5°F8.6°C 36.7°F2.6°C 66% 7.3 mph SSE11.7 kmh SSE 13.6 mph21.9 kmh 29.46 in997.6 mb 0.00 in0.0 mm 0.00 in0.0 mm 0.00 in0.0 mm
01:45 PM 47.7°F8.7°C 36.9°F2.7°C 66% 4.6 mph S7.4 kmh S 6.0 mph9.7 kmh 29.46 in997.6 mb 0.00 in0.0 mm 0.00 in0.0 mm 0.00 in0.0 mm
02:15 PM 48.9°F9.4°C 37.3°F2.9°C 64% 5.6 mph S9.0 kmh S 8.3 mph13.4 kmh 29.45 in997.3 mb 0.00 in0.0 mm 0.00 in0.0 mm 0.00 in0.0 mm
02:30 PM 49.3°F9.6°C 37.6°F3.1°C 64% 6.1 mph S9.8 kmh S 9.2 mph14.8 kmh 29.45 in997.3 mb 0.00 in0.0 mm 0.00 in0.0 mm 0.00 in0.0 mm
03:00 PM 50.0°F10.0°C 37.5°F3.1°C 62% 8.3 mph S13.4 kmh S 11.4 mph18.3 kmh 29.44 in997.0 mb 0.00 in0.0 mm 0.00 in0.0 mm 0.00 in0.0 mm
03:15 PM 49.8°F9.9°C 38.1°F3.4°C 64% 5.5 mph S8.9 kmh S 9.2 mph14.8 kmh 29.43 in996.6 mb 0.00 in0.0 mm 0.00 in0.0 mm 0.00 in0.0 mm
03:30 PM 49.6°F9.8°C 38.0°F3.3°C 64% 5.4 mph S8.7 kmh S 8.3 mph13.4 kmh 29.43 in996.6 mb 0.00 in0.0 mm 0.00 in0.0 mm 0.00 in0.0 mm
03:45 PM 49.3°F9.6°C 38.0°F3.3°C 65% 5.3 mph S8.5 kmh S 8.3 mph13.4 kmh 29.43 in996.6 mb 0.00 in0.0 mm 0.00 in0.0 mm 0.00 in0.0 mm
04:00 PM 48.9°F9.4°C 37.7°F3.2°C 65% 7.0 mph S11.3 kmh S 11.4 mph18.3 kmh 29.42 in996.3 mb 0.00 in0.0 mm 0.00 in0.0 mm 0.00 in0.0 mm
04:15 PM 48.6°F9.2°C 37.7°F3.2°C 66% 4.5 mph S7.2 kmh S 7.6 mph12.2 kmh 29.42 in996.3 mb 0.00 in0.0 mm 0.00 in0.0 mm 0.00 in0.0 mm
04:30 PM 48.0°F8.9°C 38.0°F3.3°C 68% 5.5 mph S8.9 kmh S 8.3 mph13.4 kmh 29.41 in995.9 mb 0.00 in0.0 mm 0.00 in0.0 mm 0.00 in0.0 mm
04:45 PM 47.7°F8.7°C 38.0°F3.3°C 69% 3.5 mph NW5.6 kmh NW 6.9 mph11.1 kmh 29.41 in995.9 mb 0.00 in0.0 mm 0.00 in0.0 mm 0.00 in0.0 mm
05:00 PM 47.7°F8.7°C 38.4°F3.6°C 70% 5.5 mph S8.9 kmh S 6.9 mph11.1 kmh 29.40 in995.6 mb 0.00 in0.0 mm 0.00 in0.0 mm 0.00 in0.0 mm
05:15 PM 47.5°F8.6°C 38.6°F3.7°C 71% 3.4 mph SE5.5 kmh SE 5.4 mph8.7 kmh 29.40 in995.6 mb 0.00 in0.0 mm 0.00 in0.0 mm 0.00 in0.0 mm
05:30 PM 46.9°F8.3°C 38.4°F3.6°C 72% 5.1 mph S8.2 kmh S 6.9 mph11.1 kmh 29.40 in995.6 mb 0.00 in0.0 mm 0.00 in0.0 mm 0.00 in0.0 mm
05:45 PM 46.6°F8.1°C 38.0°F3.3°C 72% 4.0 mph WSW6.4 kmh WSW 6.9 mph11.1 kmh 29.41 in995.9 mb 0.00 in0.0 mm 0.00 in0.0 mm 0.00 in0.0 mm
06:00 PM 46.2°F7.9°C 37.7°F3.2°C 72% 2.7 mph S4.3 kmh S 3.8 mph6.1 kmh 29.39 in995.3 mb 0.00 in0.0 mm 0.00 in0.0 mm 0.00 in0.0 mm
06:15 PM 46.8°F8.2°C 38.2°F3.4°C 72% 5.1 mph S8.2 kmh S 9.8 mph15.8 kmh 29.39 in995.3 mb 0.00 in0.0 mm 0.00 in0.0 mm 0.00 in0.0 mm
06:30 PM 46.2°F7.9°C 37.3°F2.9°C 71% 2.9 mph SE4.7 kmh SE 3.8 mph6.1 kmh 29.39 in995.3 mb 0.00 in0.0 mm 0.00 in0.0 mm 0.00 in0.0 mm
06:45 PM 46.2°F7.9°C 37.7°F3.2°C 72% 6.5 mph SSE10.5 kmh SSE 9.8 mph15.8 kmh 29.39 in995.3 mb 0.00 in0.0 mm 0.00 in0.0 mm 0.00 in0.0 mm
07:00 PM 46.4°F8.0°C 38.2°F3.4°C 73% 9.6 mph S15.4 kmh S 15.9 mph25.6 kmh 29.39 in995.3 mb 0.00 in0.0 mm 0.00 in0.0 mm 0.00 in0.0 mm
07:15 PM 46.0°F7.8°C 37.9°F3.3°C 73% 11.2 mph S18.0 kmh S 13.0 mph20.9 kmh 29.39 in995.3 mb 0.01 in0.3 mm 0.04 in1.0 mm 0.01 in0.3 mm
07:30 PM 46.0°F7.8°C 37.9°F3.3°C 73% 11.6 mph S18.7 kmh S 15.2 mph24.5 kmh 29.40 in995.6 mb 0.01 in0.3 mm 0.00 in0.0 mm 0.01 in0.3 mm
07:45 PM 45.7°F7.6°C 37.9°F3.3°C 74% 11.0 mph S17.7 kmh S 15.9 mph25.6 kmh 29.39 in995.3 mb 0.01 in0.3 mm 0.00 in0.0 mm 0.01 in0.3 mm
08:00 PM 45.5°F7.5°C 37.7°F3.2°C 74% 10.4 mph S16.7 kmh S 12.1 mph19.5 kmh 29.39 in995.3 mb 0.01 in0.3 mm 0.00 in0.0 mm 0.01 in0.3 mm
08:15 PM 45.3°F7.4°C 37.9°F3.3°C 75% 9.2 mph SSW14.8 kmh SSW 13.0 mph20.9 kmh 29.39 in995.3 mb 0.00 in0.0 mm 0.00 in0.0 mm 0.01 in0.3 mm
08:30 PM 45.1°F7.3°C 37.4°F3.0°C 74% 10.3 mph SSE16.6 kmh SSE 13.6 mph21.9 kmh 29.38 in994.9 mb 0.00 in0.0 mm 0.00 in0.0 mm 0.01 in0.3 mm
08:45 PM 45.1°F7.3°C 37.4°F3.0°C 74% 11.2 mph SSE18.0 kmh SSE 14.5 mph23.3 kmh 29.38 in994.9 mb 0.00 in0.0 mm 0.00 in0.0 mm 0.01 in0.3 mm
09:00 PM 44.8°F7.1°C 37.0°F2.8°C 74% 8.9 mph S14.3 kmh S 11.4 mph18.3 kmh 29.38 in994.9 mb 0.00 in0.0 mm 0.00 in0.0 mm 0.01 in0.3 mm
09:15 PM 44.8°F7.1°C 36.7°F2.6°C 73% 10.3 mph S16.6 kmh S 13.6 mph21.9 kmh 29.37 in994.6 mb 0.00 in0.0 mm 0.00 in0.0 mm 0.01 in0.3 mm
09:30 PM 44.8°F7.1°C 36.3°F2.4°C 72% 10.6 mph S17.1 kmh S 17.4 mph28.0 kmh 29.38 in994.9 mb 0.00 in0.0 mm 0.00 in0.0 mm 0.01 in0.3 mm
09:45 PM 44.8°F7.1°C 36.3°F2.4°C 72% 11.0 mph SSE17.7 kmh SSE 15.2 mph24.5 kmh 29.38 in994.9 mb 0.00 in0.0 mm 0.00 in0.0 mm 0.01 in0.3 mm
10:00 PM 44.8°F7.1°C 36.3°F2.4°C 72% 12.1 mph SE19.5 kmh SE 16.8 mph27.0 kmh 29.37 in994.6 mb 0.00 in0.0 mm 0.00 in0.0 mm 0.01 in0.3 mm
10:30 PM 44.4°F6.9°C 36.7°F2.6°C 74% 13.1 mph S21.1 kmh S 17.4 mph28.0 kmh 29.36 in994.2 mb 0.00 in0.0 mm 0.00 in0.0 mm 0.01 in0.3 mm
10:45 PM 44.4°F6.9°C 36.7°F2.6°C 74% 11.5 mph S18.5 kmh S 14.5 mph23.3 kmh 29.36 in994.2 mb 0.00 in0.0 mm 0.00 in0.0 mm 0.01 in0.3 mm
11:00 PM 44.4°F6.9°C 36.7°F2.6°C 74% 11.7 mph S18.8 kmh S 15.9 mph25.6 kmh 29.36 in994.2 mb 0.00 in0.0 mm 0.00 in0.0 mm 0.01 in0.3 mm
11:15 PM 44.4°F6.9°C 36.7°F2.6°C 74% 12.5 mph S20.1 kmh S 16.8 mph27.0 kmh 29.36 in994.2 mb 0.00 in0.0 mm 0.00 in0.0 mm 0.01 in0.3 mm
11:30 PM 44.4°F6.9°C 36.7°F2.6°C 74% 10.1 mph SSE16.3 kmh SSE 15.9 mph25.6 kmh 29.36 in994.2 mb 0.00 in0.0 mm 0.00 in0.0 mm 0.01 in0.3 mm
11:45 PM 44.2°F6.8°C 36.5°F2.5°C 74% 9.5 mph S15.3 kmh S 13.0 mph20.9 kmh 29.36 in994.2 mb 0.00 in0.0 mm 0.00 in0.0 mm 0.01 in0.3 mm